Time;durP1;ratioP1;P1;durP2;ratioP2;P2;SDS_P1;SDS_P2;PMS_P1;PMS_P2;Temp;Humidity;BMP_temperature;BMP_pressure;BME280_temperature;BME280_humidity;BME280_pressure;Samples;Min_cycle;Max_cycle;Signal;HPM_P1;HPM_P2
2023/04/30 00:00:10;;;;;;;9.73;3.95;;;8.00;99.90;;;;;;4962109;28;20054;-71
2023/04/30 00:02:35;;;;;;;9.98;3.90;;;8.00;99.90;;;;;;4978662;28;20077;-70
2023/04/30 00:05:01;;;;;;;12.57;5.22;;;8.00;99.90;;;;;;4990939;28;20090;-70
2023/04/30 00:07:27;;;;;;;8.85;4.28;;;7.90;99.90;;;;;;4980964;28;20055;-71
2023/04/30 00:09:52;;;;;;;11.77;4.00;;;7.90;99.90;;;;;;4984065;28;20046;-71
2023/04/30 00:12:18;;;;;;;8.35;3.83;;;7.90;99.90;;;;;;4983336;28;20540;-70
2023/04/30 00:14:43;;;;;;;10.30;4.18;;;7.80;99.90;;;;;;4973915;28;20136;-71
2023/04/30 00:17:09;;;;;;;8.20;4.32;;;7.70;99.90;;;;;;4961614;28;20042;-71
2023/04/30 00:19:35;;;;;;;12.70;4.75;;;7.70;99.90;;;;;;4983362;28;20065;-70
2023/04/30 00:22:01;;;;;;;12.43;4.38;;;7.60;99.90;;;;;;4984622;28;20208;-71
2023/04/30 00:24:27;;;;;;;11.88;5.10;;;7.50;99.90;;;;;;4983570;28;20054;-71
2023/04/30 00:26:52;;;;;;;13.40;4.57;;;7.50;99.90;;;;;;4982416;28;20453;-70
2023/04/30 00:29:18;;;;;;;11.55;4.63;;;7.50;99.90;;;;;;4983163;28;20463;-70
2023/04/30 00:31:44;;;;;;;10.63;4.40;;;7.50;99.90;;;;;;4980515;28;20121;-71
2023/04/30 00:34:10;;;;;;;10.93;5.00;;;7.50;99.90;;;;;;4994693;28;20415;-70
2023/04/30 00:36:36;;;;;;;13.30;4.97;;;7.50;99.90;;;;;;4981895;28;20078;-70
2023/04/30 00:39:02;;;;;;;13.63;5.18;;;7.50;99.90;;;;;;4976488;28;20129;-71
2023/04/30 00:41:29;;;;;;;11.88;5.60;;;7.50;99.90;;;;;;4985539;28;20116;-71
2023/04/30 00:43:54;;;;;;;10.50;5.50;;;7.50;99.90;;;;;;4979897;28;20450;-70
2023/04/30 00:46:20;;;;;;;17.42;5.95;;;7.50;99.90;;;;;;4981506;28;20046;-70
2023/04/30 00:48:46;;;;;;;20.63;6.20;;;7.50;99.90;;;;;;4983035;28;20057;-71
2023/04/30 00:51:11;;;;;;;22.30;5.60;;;7.40;99.90;;;;;;4980973;28;20043;-71
2023/04/30 00:53:40;;;;;;;17.20;5.72;;;7.40;99.90;;;;;;4962040;28;20062;-71
2023/04/30 00:56:08;;;;;;;16.08;5.93;;;7.40;99.90;;;;;;4962957;28;20085;-70
2023/04/30 00:58:34;;;;;;;15.75;5.53;;;7.40;99.90;;;;;;4982797;28;20037;-71
2023/04/30 01:01:02;;;;;;;11.73;5.90;;;7.40;99.90;;;;;;4978980;28;20609;-70
2023/04/30 01:03:28;;;;;;;12.93;5.63;;;7.40;99.90;;;;;;4984821;28;20046;-70
2023/04/30 01:05:53;;;;;;;18.70;5.88;;;7.40;99.90;;;;;;4982207;28;20050;-70
2023/04/30 01:08:20;;;;;;;14.68;5.97;;;7.40;99.90;;;;;;4977607;28;20078;-71
2023/04/30 01:11:11;;;;;;;13.07;6.00;;;7.40;99.90;;;;;;4981767;28;20042;-70
2023/04/30 01:13:51;;;;;;;17.25;5.47;;;7.40;99.90;;;;;;4977941;28;20510;-71
2023/04/30 01:16:27;;;;;;;11.40;5.10;;;7.40;99.90;;;;;;4982782;28;20371;-71
2023/04/30 01:19:07;;;;;;;13.68;5.85;;;7.40;99.90;;;;;;4986332;28;20050;-70
2023/04/30 01:21:37;;;;;;;11.35;5.35;;;7.40;99.90;;;;;;4979863;28;20046;-71
2023/04/30 01:24:15;;;;;;;12.43;5.90;;;7.40;99.90;;;;;;4988146;28;20085;-71
2023/04/30 01:27:17;;;;;;;14.68;5.72;;;7.50;99.90;;;;;;4982324;28;20042;-70
2023/04/30 01:29:42;;;;;;;13.93;5.75;;;7.50;99.90;;;;;;4992451;28;20048;-70
2023/04/30 01:32:10;;;;;;;10.18;4.90;;;7.50;99.90;;;;;;4978821;28;20094;-70
2023/04/30 01:34:35;;;;;;;12.93;5.70;;;7.50;99.90;;;;;;4974343;28;20056;-71
2023/04/30 01:37:44;;;;;;;11.30;5.40;;;7.50;99.90;;;;;;4981739;28;20438;-70
2023/04/30 01:40:36;;;;;;;12.77;5.50;;;7.60;99.90;;;;;;4988424;28;20042;-71
2023/04/30 01:43:29;;;;;;;12.82;5.65;;;7.60;99.90;;;;;;4985945;28;20042;-71
2023/04/30 01:46:07;;;;;;;13.02;4.97;;;7.60;99.90;;;;;;4982519;28;20050;-71
2023/04/30 01:48:55;;;;;;;13.73;5.72;;;7.60;99.90;;;;;;4981394;28;20042;-70
2023/04/30 01:51:31;;;;;;;11.68;5.53;;;7.60;99.90;;;;;;4980440;28;20101;-71
2023/04/30 01:54:04;;;;;;;15.60;6.05;;;7.70;99.90;;;;;;4997081;28;20185;-71
2023/04/30 01:56:43;;;;;;;13.40;5.47;;;7.70;99.90;;;;;;4983783;28;20136;-70
2023/04/30 01:59:10;;;;;;;13.60;5.60;;;7.70;99.90;;;;;;4986918;28;20074;-71
2023/04/30 02:01:36;;;;;;;10.82;5.13;;;7.60;99.90;;;;;;4983274;28;20038;-71
2023/04/30 02:04:03;;;;;;;13.20;5.63;;;7.60;99.90;;;;;;4985712;28;20042;-71
2023/04/30 02:06:29;;;;;;;11.43;5.28;;;7.60;99.90;;;;;;4983607;28;20510;-71
2023/04/30 02:09:01;;;;;;;9.05;5.10;;;7.60;99.90;;;;;;4986628;28;20565;-71
2023/04/30 02:11:26;;;;;;;15.38;5.90;;;7.60;99.90;;;;;;4981291;28;20054;-70
2023/04/30 02:13:52;;;;;;;13.32;6.32;;;7.60;99.90;;;;;;4985557;28;20513;-72
2023/04/30 02:16:18;;;;;;;12.60;6.03;;;7.60;99.90;;;;;;4981357;28;20245;-70
2023/04/30 02:18:44;;;;;;;11.57;6.18;;;7.60;99.90;;;;;;4983994;28;20121;-71
2023/04/30 02:21:10;;;;;;;14.05;5.55;;;7.60;99.90;;;;;;4977555;28;20046;-70
2023/04/30 02:23:35;;;;;;;14.10;5.53;;;7.60;99.90;;;;;;4984138;28;20077;-71
2023/04/30 02:26:02;;;;;;;9.20;5.00;;;7.60;99.90;;;;;;4985581;28;20046;-70
2023/04/30 02:28:27;;;;;;;17.30;5.72;;;7.60;99.90;;;;;;4980704;28;20130;-70
2023/04/30 02:30:53;;;;;;;14.75;5.95;;;7.60;99.90;;;;;;4983096;28;20451;-70
2023/04/30 02:33:19;;;;;;;13.25;5.45;;;7.60;99.90;;;;;;4981227;28;20105;-70
2023/04/30 02:35:45;;;;;;;13.30;5.72;;;7.60;99.90;;;;;;4987350;28;20124;-70
2023/04/30 02:38:11;;;;;;;9.50;5.28;;;7.60;99.90;;;;;;4980717;28;20048;-70
2023/04/30 02:40:36;;;;;;;14.50;5.15;;;7.60;99.90;;;;;;4982937;28;20544;-70
2023/04/30 02:43:02;;;;;;;12.65;5.32;;;7.60;99.90;;;;;;4983377;28;20114;-70
2023/04/30 02:45:29;;;;;;;17.42;5.75;;;7.60;99.90;;;;;;4982484;28;20038;-71
2023/04/30 02:47:55;;;;;;;13.02;6.38;;;7.60;99.90;;;;;;4981359;28;20058;-70
2023/04/30 02:50:21;;;;;;;11.93;4.90;;;7.60;99.90;;;;;;4981875;28;20042;-71
2023/04/30 02:52:46;;;;;;;12.80;5.35;;;7.60;99.90;;;;;;4982451;28;20446;-70
2023/04/30 02:55:12;;;;;;;14.73;5.07;;;7.60;99.90;;;;;;4981074;28;20043;-71
2023/04/30 02:57:38;;;;;;;14.80;5.05;;;7.60;99.90;;;;;;4982659;28;20062;-70
2023/04/30 03:00:04;;;;;;;13.55;5.15;;;7.60;99.90;;;;;;4981664;28;20042;-70
2023/04/30 03:02:30;;;;;;;10.27;4.30;;;7.60;99.90;;;;;;4980822;28;20121;-70
2023/04/30 03:04:56;;;;;;;13.98;4.72;;;7.60;99.90;;;;;;4986897;28;20221;-70
2023/04/30 03:07:21;;;;;;;9.15;4.45;;;7.60;99.90;;;;;;4985894;28;20038;-71
2023/04/30 03:09:47;;;;;;;12.18;5.13;;;7.60;99.90;;;;;;4981764;28;20050;-71
2023/04/30 03:12:13;;;;;;;9.77;4.65;;;7.60;99.90;;;;;;4984765;28;20045;-71
2023/04/30 03:14:40;;;;;;;8.15;4.28;;;7.50;99.90;;;;;;4964844;28;20053;-71
2023/04/30 03:17:05;;;;;;;10.57;4.28;;;7.40;99.90;;;;;;4978945;28;20815;-70
2023/04/30 03:19:31;;;;;;;9.00;5.32;;;7.40;99.90;;;;;;4982697;28;20141;-70
2023/04/30 03:21:57;;;;;;;15.63;5.43;;;7.40;99.90;;;;;;4983608;28;20047;-71
2023/04/30 03:24:24;;;;;;;13.38;5.05;;;7.30;99.90;;;;;;4978909;28;20104;-70
2023/04/30 03:26:50;;;;;;;7.93;4.90;;;7.20;99.90;;;;;;4985806;28;20046;-70
2023/04/30 03:29:16;;;;;;;7.70;4.63;;;7.20;99.90;;;;;;4974462;28;20077;-72
2023/04/30 03:31:41;;;;;;;13.15;5.05;;;7.20;99.90;;;;;;4982089;28;20038;-70
2023/04/30 03:34:08;;;;;;;14.13;5.32;;;7.20;99.90;;;;;;4981292;28;20105;-70
2023/04/30 03:36:33;;;;;;;13.48;4.78;;;7.10;99.90;;;;;;4984083;28;20046;-71
2023/04/30 03:38:59;;;;;;;11.60;4.60;;;7.10;99.90;;;;;;4980832;28;20053;-71
2023/04/30 03:41:25;;;;;;;11.38;4.32;;;7.00;99.90;;;;;;4984337;28;20536;-70
2023/04/30 03:43:51;;;;;;;12.70;4.88;;;6.90;99.90;;;;;;4981870;28;20296;-70
2023/04/30 03:46:26;;;;;;;14.35;4.65;;;6.90;99.90;;;;;;5017579;23;21009;-89
2023/04/30 03:48:51;;;;;;;10.73;4.80;;;6.90;99.90;;;;;;4998890;23;20045;-71
2023/04/30 03:51:19;;;;;;;9.60;4.72;;;6.90;99.90;;;;;;4958508;28;20050;-71
2023/04/30 03:53:45;;;;;;;11.93;4.38;;;6.80;99.90;;;;;;4963152;28;20062;-71
2023/04/30 03:56:12;;;;;;;11.73;5.13;;;6.70;99.90;;;;;;4964290;28;20030;-71
2023/04/30 03:58:38;;;;;;;12.20;4.97;;;6.70;99.90;;;;;;4963679;28;20082;-71
2023/04/30 04:01:04;;;;;;;12.35;5.82;;;6.70;99.90;;;;;;4964960;28;20184;-71
2023/04/30 04:03:30;;;;;;;13.02;6.30;;;6.70;99.90;;;;;;4965388;28;20053;-72
2023/04/30 04:05:55;;;;;;;18.25;5.90;;;6.60;99.90;;;;;;4963453;28;20039;-72
2023/04/30 04:08:21;;;;;;;16.30;6.00;;;6.60;99.90;;;;;;4962027;28;20043;-71
2023/04/30 04:10:47;;;;;;;10.75;5.47;;;6.60;99.90;;;;;;4967202;28;20066;-72
2023/04/30 04:13:12;;;;;;;16.45;6.07;;;6.60;99.90;;;;;;4966763;28;20477;-71
2023/04/30 04:15:38;;;;;;;16.45;5.70;;;6.60;99.90;;;;;;4966543;28;20046;-71
2023/04/30 04:18:06;;;;;;;10.05;5.45;;;6.60;99.90;;;;;;4969306;28;20101;-71
2023/04/30 04:20:32;;;;;;;19.08;6.03;;;6.60;99.90;;;;;;4965119;28;20050;-71
2023/04/30 04:22:57;;;;;;;13.38;4.97;;;6.60;99.90;;;;;;4966657;28;20564;-71
2023/04/30 04:25:24;;;;;;;15.18;5.72;;;6.60;99.90;;;;;;4964997;28;20486;-72
2023/04/30 04:27:51;;;;;;;10.43;6.38;;;6.50;99.90;;;;;;4965976;28;20035;-71
2023/04/30 04:30:17;;;;;;;11.23;5.32;;;6.50;99.90;;;;;;4964467;28;20127;-72
2023/04/30 04:32:47;;;;;;;16.70;5.95;;;6.50;99.90;;;;;;4962387;28;20068;-71
2023/04/30 04:35:17;;;;;;;13.02;5.20;;;6.50;99.90;;;;;;4958153;28;20046;-72
2023/04/30 04:37:43;;;;;;;11.90;5.65;;;6.50;99.90;;;;;;4944074;28;20039;-71
2023/04/30 04:40:11;;;;;;;10.27;4.75;;;6.60;99.90;;;;;;4960939;28;20112;-71
2023/04/30 04:42:37;;;;;;;11.85;5.15;;;6.60;99.90;;;;;;4965882;28;20046;-71
2023/04/30 04:45:06;;;;;;;8.52;5.03;;;6.60;99.90;;;;;;4963527;28;20121;-71
2023/04/30 04:47:32;;;;;;;14.57;5.38;;;6.50;99.90;;;;;;4927891;29;20137;-71
2023/04/30 04:49:58;;;;;;;14.13;5.43;;;6.60;99.90;;;;;;4944994;28;20146;-71
2023/04/30 04:52:23;;;;;;;13.85;6.07;;;6.50;99.90;;;;;;4955512;28;20063;-72
2023/04/30 04:54:49;;;;;;;10.70;5.15;;;6.50;99.90;;;;;;4962182;28;20046;-72
2023/04/30 04:57:15;;;;;;;8.30;4.45;;;6.60;99.90;;;;;;4959298;28;20043;-71
2023/04/30 04:59:40;;;;;;;8.70;4.10;;;6.50;99.90;;;;;;4959756;28;20051;-71
2023/04/30 05:02:06;;;;;;;10.73;5.25;;;6.50;99.90;;;;;;4942330;28;20051;-71
2023/04/30 05:04:32;;;;;;;8.73;4.88;;;6.50;99.90;;;;;;4944809;28;20118;-72
2023/04/30 05:06:57;;;;;;;11.98;4.85;;;6.50;99.90;;;;;;4928361;29;20047;-71
2023/04/30 05:09:23;;;;;;;10.45;4.32;;;6.60;99.90;;;;;;4944510;28;20163;-72
2023/04/30 05:11:48;;;;;;;13.15;5.03;;;6.60;99.90;;;;;;4941657;28;20502;-72
2023/04/30 05:14:14;;;;;;;9.07;4.85;;;6.60;99.90;;;;;;4944330;28;20407;-72
2023/04/30 05:16:40;;;;;;;13.60;5.78;;;6.60;99.90;;;;;;4939538;28;20069;-72
2023/04/30 05:19:08;;;;;;;13.55;6.78;;;6.70;99.90;;;;;;4911653;28;20090;-72
2023/04/30 05:21:34;;;;;;;14.73;7.70;;;6.70;99.90;;;;;;4940652;28;20447;-71
2023/04/30 05:24:00;;;;;;;16.98;6.90;;;6.70;99.90;;;;;;4945793;28;20102;-72
2023/04/30 05:26:26;;;;;;;12.40;5.78;;;6.80;99.90;;;;;;4958046;28;20047;-72
2023/04/30 05:28:51;;;;;;;14.55;5.13;;;6.80;99.90;;;;;;4945117;28;20039;-72
2023/04/30 05:31:17;;;;;;;8.73;4.68;;;6.80;99.90;;;;;;4937394;28;20082;-73
2023/04/30 05:33:43;;;;;;;9.18;3.97;;;6.80;99.90;;;;;;4959816;28;20043;-72
2023/04/30 05:36:12;;;;;;;5.97;3.53;;;6.90;99.90;;;;;;4926489;28;20518;-71
2023/04/30 05:38:38;;;;;;;11.50;4.70;;;6.90;99.90;;;;;;4945817;28;20447;-72
2023/04/30 05:41:04;;;;;;;6.93;4.15;;;7.00;99.90;;;;;;4943473;28;20099;-72
2023/04/30 05:43:29;;;;;;;10.20;4.38;;;7.00;99.90;;;;;;4927184;29;20102;-72
2023/04/30 05:45:55;;;;;;;9.13;4.35;;;7.10;99.90;;;;;;4944233;28;20050;-72
2023/04/30 05:48:21;;;;;;;14.50;4.82;;;7.20;99.90;;;;;;4941335;28;20432;-72
2023/04/30 05:50:46;;;;;;;15.38;5.13;;;7.20;99.90;;;;;;4944197;28;20043;-72
2023/04/30 05:53:12;;;;;;;12.18;4.22;;;7.30;99.90;;;;;;4957219;28;20042;-72
2023/04/30 05:55:38;;;;;;;14.07;4.80;;;7.30;99.90;;;;;;4944175;28;20039;-72
2023/04/30 05:58:05;;;;;;;10.85;4.35;;;7.40;99.90;;;;;;4942150;28;20533;-72
2023/04/30 06:00:30;;;;;;;18.08;4.85;;;7.50;99.90;;;;;;4945731;28;20156;-71
2023/04/30 06:02:58;;;;;;;9.40;4.22;;;7.60;99.90;;;;;;4943398;28;20110;-73
2023/04/30 06:05:23;;;;;;;11.52;4.30;;;7.70;99.90;;;;;;4947261;28;20487;-73
2023/04/30 06:07:49;;;;;;;10.93;4.53;;;7.80;99.90;;;;;;4945731;28;20058;-73
2023/04/30 06:10:15;;;;;;;12.65;5.50;;;7.90;99.90;;;;;;4947290;28;20039;-73
2023/04/30 06:12:42;;;;;;;10.57;4.30;;;8.00;99.90;;;;;;4946135;28;20206;-73
2023/04/30 06:15:08;;;;;;;16.83;4.47;;;8.00;99.90;;;;;;4954296;28;20156;-73
2023/04/30 06:17:33;;;;;;;12.02;4.53;;;8.10;99.90;;;;;;4949453;28;20047;-73
2023/04/30 06:20:01;;;;;;;10.80;4.22;;;8.20;99.90;;;;;;4950712;28;20479;-74
2023/04/30 06:22:28;;;;;;;13.15;5.07;;;8.30;99.90;;;;;;4942106;28;20055;-73
2023/04/30 06:24:53;;;;;;;11.23;4.07;;;8.30;99.90;;;;;;4942925;28;20295;-74
2023/04/30 06:27:19;;;;;;;11.23;4.43;;;8.40;99.90;;;;;;4943913;28;20196;-74
2023/04/30 06:29:45;;;;;;;11.65;4.78;;;8.40;99.90;;;;;;4957017;28;21010;-76
2023/04/30 06:32:10;;;;;;;11.32;4.30;;;8.40;99.90;;;;;;4958710;28;20503;-73
2023/04/30 06:34:37;;;;;;;15.55;4.93;;;8.50;99.90;;;;;;4941381;28;20692;-73
2023/04/30 06:37:05;;;;;;;10.50;4.32;;;8.60;99.90;;;;;;4944133;28;20082;-72
2023/04/30 06:39:33;;;;;;;12.38;4.55;;;8.70;99.90;;;;;;4950173;28;20095;-73
2023/04/30 06:41:59;;;;;;;11.02;5.03;;;8.70;99.90;;;;;;4949420;28;20043;-73
2023/04/30 06:44:25;;;;;;;9.77;3.97;;;8.90;99.90;;;;;;4939190;28;20067;-74
2023/04/30 06:46:51;;;;;;;14.02;4.75;;;9.10;99.90;;;;;;4922529;28;20131;-74
2023/04/30 06:49:16;;;;;;;11.55;3.90;;;9.30;99.90;;;;;;4942152;28;20127;-73
2023/04/30 06:51:42;;;;;;;11.25;4.03;;;9.50;99.90;;;;;;4940899;28;20402;-75
2023/04/30 06:54:08;;;;;;;10.10;4.18;;;9.70;99.90;;;;;;4944764;28;20090;-74
2023/04/30 06:56:34;;;;;;;11.50;3.55;;;9.80;99.90;;;;;;4949533;28;20712;-74
2023/04/30 06:58:59;;;;;;;19.20;3.80;;;9.90;99.90;;;;;;4930912;29;20361;-74
2023/04/30 07:01:25;;;;;;;11.15;3.72;;;10.10;99.90;;;;;;4946092;28;20122;-75
2023/04/30 07:03:53;;;;;;;11.55;4.00;;;10.30;99.90;;;;;;4959310;28;20512;-74
2023/04/30 07:06:19;;;;;;;11.43;3.55;;;10.40;99.90;;;;;;4947330;28;20037;-73
2023/04/30 07:08:48;;;;;;;11.13;4.38;;;10.50;99.90;;;;;;4949518;28;20450;-73
2023/04/30 07:11:13;;;;;;;10.10;3.50;;;10.40;99.90;;;;;;4933165;28;20315;-74
2023/04/30 07:13:39;;;;;;;12.68;3.90;;;10.30;99.90;;;;;;4929449;29;20035;-73
2023/04/30 07:16:05;;;;;;;12.38;3.90;;;10.30;99.90;;;;;;4946732;28;20054;-73
2023/04/30 07:18:31;;;;;;;15.18;3.70;;;10.20;99.90;;;;;;4954045;28;20442;-73
2023/04/30 07:20:56;;;;;;;11.30;3.35;;;10.10;99.90;;;;;;4946152;28;20047;-74
2023/04/30 07:23:22;;;;;;;11.10;2.78;;;10.20;99.90;;;;;;4945936;28;20394;-73
2023/04/30 07:25:48;;;;;;;13.63;3.47;;;10.20;99.90;;;;;;4947760;28;20054;-73
2023/04/30 07:28:13;;;;;;;8.65;3.30;;;10.10;99.90;;;;;;4938619;28;20055;-73
2023/04/30 07:30:39;;;;;;;10.75;3.20;;;10.10;99.90;;;;;;4941656;28;20051;-73
2023/04/30 07:33:07;;;;;;;9.55;3.25;;;10.10;99.90;;;;;;4945150;28;20180;-73
2023/04/30 07:35:32;;;;;;;9.00;3.25;;;10.30;99.90;;;;;;4947777;28;20506;-73
2023/04/30 07:37:58;;;;;;;10.90;3.35;;;10.50;99.90;;;;;;4946797;28;20058;-74
2023/04/30 07:40:24;;;;;;;16.45;4.15;;;10.50;99.90;;;;;;4944904;28;20490;-74
2023/04/30 07:42:49;;;;;;;12.68;3.58;;;10.60;99.90;;;;;;4946812;28;20643;-73
2023/04/30 07:45:15;;;;;;;17.58;4.18;;;10.70;99.90;;;;;;4929957;28;20077;-72
2023/04/30 07:47:43;;;;;;;10.70;3.75;;;10.80;99.90;;;;;;4945816;28;20377;-72
2023/04/30 07:50:09;;;;;;;11.25;3.40;;;11.00;99.90;;;;;;4943841;28;20055;-73
2023/04/30 07:52:35;;;;;;;12.15;3.53;;;11.10;99.90;;;;;;4947091;28;20058;-73
2023/04/30 07:55:01;;;;;;;9.25;3.55;;;11.20;99.90;;;;;;4946120;29;20039;-73
2023/04/30 07:57:26;;;;;;;12.43;3.28;;;11.30;99.90;;;;;;4946315;28;20051;-73
2023/04/30 07:59:56;;;;;;;11.07;4.47;;;11.20;99.90;;;;;;4949858;28;20047;-73
2023/04/30 08:02:22;;;;;;;6.97;2.72;;;11.30;99.90;;;;;;4960754;28;20147;-73
2023/04/30 08:04:48;;;;;;;13.80;3.70;;;11.40;99.90;;;;;;4946269;28;20075;-73
2023/04/30 08:07:16;;;;;;;11.52;3.65;;;11.50;99.90;;;;;;4946762;28;20036;-73
2023/04/30 08:09:42;;;;;;;14.00;3.50;;;11.40;99.90;;;;;;4943008;28;20451;-73
2023/04/30 08:12:08;;;;;;;13.82;3.97;;;11.30;99.90;;;;;;4948938;28;20058;-73
2023/04/30 08:14:34;;;;;;;12.77;3.40;;;11.20;99.90;;;;;;4946658;28;20043;-73
2023/04/30 08:17:01;;;;;;;9.48;2.88;;;11.20;99.90;;;;;;4943388;28;20082;-73
2023/04/30 08:19:27;;;;;;;15.68;3.78;;;11.20;99.90;;;;;;4943325;28;20051;-74
2023/04/30 08:21:53;;;;;;;12.75;3.38;;;11.30;99.90;;;;;;4943658;28;20050;-74
2023/04/30 08:24:18;;;;;;;10.60;2.60;;;11.60;99.90;;;;;;4947370;28;20406;-73
2023/04/30 08:26:44;;;;;;;10.93;2.95;;;11.90;99.90;;;;;;4943745;28;20056;-73
2023/04/30 08:29:10;;;;;;;8.80;3.13;;;12.00;99.90;;;;;;4937396;28;20043;-73
2023/04/30 08:31:36;;;;;;;7.65;2.95;;;12.10;99.90;;;;;;4940163;28;20526;-73
2023/04/30 08:34:01;;;;;;;7.28;2.90;;;12.10;99.90;;;;;;4941810;28;20093;-73
2023/04/30 08:36:27;;;;;;;8.68;3.78;;;12.10;99.90;;;;;;4943517;28;20151;-74
2023/04/30 08:38:53;;;;;;;10.05;2.72;;;12.20;99.90;;;;;;4945490;28;20061;-73
2023/04/30 08:41:24;;;;;;;8.27;3.08;;;12.20;99.90;;;;;;4945050;28;20046;-72
2023/04/30 08:43:52;;;;;;;13.65;3.80;;;12.30;99.90;;;;;;4944235;28;20086;-73
2023/04/30 08:46:19;;;;;;;7.88;3.28;;;12.30;99.90;;;;;;4960580;28;20471;-73
2023/04/30 08:48:47;;;;;;;8.82;3.38;;;12.30;99.90;;;;;;4947334;28;20074;-72
2023/04/30 08:51:13;;;;;;;13.25;3.97;;;12.20;99.90;;;;;;4940808;28;20079;-72
2023/04/30 08:53:41;;;;;;;10.77;2.75;;;12.20;99.90;;;;;;4921443;28;20055;-71
2023/04/30 08:56:10;;;;;;;8.68;2.75;;;12.40;99.90;;;;;;4944205;28;20387;-69
2023/04/30 08:58:36;;;;;;;8.23;2.60;;;12.40;99.90;;;;;;4944235;28;20126;-70
2023/04/30 09:01:02;;;;;;;12.55;2.90;;;12.50;99.90;;;;;;4944776;28;20043;-70
2023/04/30 09:03:29;;;;;;;9.40;3.30;;;12.80;99.90;;;;;;4945524;28;20866;-69
2023/04/30 09:05:55;;;;;;;8.90;2.22;;;12.90;99.90;;;;;;4943781;28;20035;-69
2023/04/30 09:08:46;;;;;;;7.53;3.58;;;13.00;99.90;;;;;;4944519;28;20047;-70
2023/04/30 09:11:29;;;;;;;10.55;3.03;;;12.90;99.90;;;;;;4939482;28;20130;-70
2023/04/30 09:13:59;;;;;;;9.40;2.95;;;12.90;99.90;;;;;;4959883;28;20250;-70
2023/04/30 09:16:28;;;;;;;9.98;2.83;;;13.10;99.90;;;;;;4955023;28;20043;-70
2023/04/30 09:18:55;;;;;;;11.35;2.90;;;13.10;99.90;;;;;;4957412;28;20407;-74
2023/04/30 09:21:35;;;;;;;8.77;3.22;;;13.30;99.90;;;;;;4943476;28;20054;-76
2023/04/30 09:24:02;;;;;;;8.10;2.40;;;13.30;99.90;;;;;;4946993;28;20047;-72
2023/04/30 09:26:33;;;;;;;11.18;3.03;;;13.40;99.90;;;;;;4939951;28;20043;-73
2023/04/30 09:29:00;;;;;;;6.90;2.08;;;13.40;99.90;;;;;;4944555;28;20043;-71
2023/04/30 09:31:27;;;;;;;7.03;2.13;;;13.60;99.90;;;;;;4943288;28;20630;-70
2023/04/30 09:33:53;;;;;;;11.50;2.80;;;13.90;99.90;;;;;;4947038;28;20039;-72
2023/04/30 09:36:19;;;;;;;7.40;2.75;;;13.90;99.90;;;;;;4940776;28;20118;-72
2023/04/30 09:38:45;;;;;;;7.10;2.58;;;14.00;99.90;;;;;;4943834;28;20064;-71
2023/04/30 09:41:27;;;;;;;14.35;3.03;;;14.00;99.90;;;;;;4952907;28;20185;-72
2023/04/30 09:43:57;;;;;;;6.93;2.83;;;14.10;99.90;;;;;;4953327;29;20047;-71
2023/04/30 09:46:36;;;;;;;6.97;2.47;;;14.20;99.90;;;;;;4955267;28;20146;-71
2023/04/30 09:49:06;;;;;;;10.88;2.83;;;14.20;99.90;;;;;;4939101;28;20134;-71
2023/04/30 09:51:32;;;;;;;8.18;2.83;;;14.10;99.90;;;;;;4944430;28;20503;-72
2023/04/30 09:54:00;;;;;;;7.15;2.67;;;14.00;99.90;;;;;;4945005;28;20447;-72
2023/04/30 09:56:25;;;;;;;5.43;2.15;;;14.10;99.90;;;;;;4948051;28;20162;-75
2023/04/30 09:58:56;;;;;;;9.82;2.92;;;13.90;99.90;;;;;;4947735;28;20521;-71
2023/04/30 10:01:28;;;;;;;8.13;2.50;;;13.90;99.90;;;;;;4942786;28;20543;-74
2023/04/30 10:03:54;;;;;;;9.38;2.88;;;13.80;99.90;;;;;;4945454;28;20074;-74
2023/04/30 10:06:20;;;;;;;9.57;2.63;;;13.80;99.90;;;;;;4947276;28;20079;-74
2023/04/30 10:08:52;;;;;;;9.02;2.45;;;13.80;99.90;;;;;;4946605;28;20132;-74
2023/04/30 10:11:20;;;;;;;6.18;2.72;;;13.90;99.90;;;;;;4959948;28;20495;-72
2023/04/30 10:13:45;;;;;;;9.80;2.88;;;14.00;99.90;;;;;;4947492;28;20058;-75
2023/04/30 10:16:24;;;;;;;7.97;2.70;;;14.10;99.90;;;;;;4944750;28;20059;-73
2023/04/30 10:18:52;;;;;;;7.22;2.40;;;14.20;99.90;;;;;;4941771;28;20035;-74
2023/04/30 10:21:21;;;;;;;6.72;2.38;;;14.30;99.90;;;;;;4942093;28;20054;-75
2023/04/30 10:23:47;;;;;;;6.40;2.45;;;14.50;99.90;;;;;;4947028;28;20520;-74
2023/04/30 10:26:15;;;;;;;6.70;2.63;;;14.40;99.90;;;;;;4958647;28;20047;-74
2023/04/30 10:28:41;;;;;;;9.35;2.60;;;14.50;99.90;;;;;;4943812;28;20043;-73
2023/04/30 10:31:11;;;;;;;7.53;2.50;;;14.50;99.90;;;;;;4959955;28;20086;-72
2023/04/30 10:34:07;;;;;;;6.38;2.30;;;14.70;99.90;;;;;;4957534;28;20597;-73
2023/04/30 10:36:43;;;;;;;7.72;2.65;;;14.80;99.90;;;;;;4949496;28;20051;-72
2023/04/30 10:39:11;;;;;;;12.57;3.67;;;14.60;99.90;;;;;;4944436;28;20521;-72
2023/04/30 10:41:37;;;;;;;5.63;2.30;;;14.70;99.90;;;;;;4948545;28;20139;-72
2023/04/30 10:44:06;;;;;;;7.63;2.70;;;14.70;99.90;;;;;;4945172;28;20138;-73
2023/04/30 10:46:35;;;;;;;7.05;2.50;;;14.90;99.90;;;;;;4945809;28;20062;-73
2023/04/30 10:49:00;;;;;;;6.93;2.75;;;15.20;99.90;;;;;;4944682;28;20055;-74
2023/04/30 10:51:45;;;;;;;5.40;2.42;;;15.40;99.90;;;;;;4948632;28;20079;-69
2023/04/30 10:54:16;;;;;;;7.47;2.33;;;15.40;99.90;;;;;;4943528;28;20463;-73
2023/04/30 10:56:45;;;;;;;6.35;2.45;;;15.30;99.90;;;;;;4944706;28;20066;-75
2023/04/30 10:59:10;;;;;;;6.03;2.25;;;15.40;99.90;;;;;;4942171;28;20067;-73
2023/04/30 11:02:18;;;;;;;5.72;2.60;;;15.50;99.90;;;;;;4922956;28;20130;-73
2023/04/30 11:05:06;;;;;;;7.22;2.92;;;15.60;99.90;;;;;;4865495;29;20131;-73
2023/04/30 11:07:32;;;;;;;6.68;2.10;;;15.50;99.90;;;;;;4897049;29;20048;-72
2023/04/30 11:09:59;;;;;;;5.80;2.75;;;15.40;99.90;;;;;;4922835;28;20058;-73
2023/04/30 11:12:29;;;;;;;5.63;2.33;;;15.60;99.90;;;;;;4948403;28;20071;-72
2023/04/30 11:15:06;;;;;;;4.07;2.45;;;15.60;99.90;;;;;;4942846;28;20077;-73
2023/04/30 11:17:32;;;;;;;7.18;2.28;;;15.80;99.90;;;;;;4959211;28;20062;-73
2023/04/30 11:20:00;;;;;;;4.72;2.05;;;15.90;99.90;;;;;;4938761;28;20044;-73
2023/04/30 11:22:35;;;;;;;4.00;2.08;;;16.00;99.90;;;;;;4938977;28;20522;-73
2023/04/30 11:25:14;;;;;;;4.55;2.00;;;16.20;99.90;;;;;;4942085;28;20328;-79
2023/04/30 11:27:43;;;;;;;7.60;2.88;;;16.10;99.90;;;;;;4942132;28;20059;-79
2023/04/30 11:30:14;;;;;;;5.20;2.53;;;16.10;99.90;;;;;;4954907;28;20531;-78
2023/04/30 11:32:42;;;;;;;6.80;2.42;;;16.20;99.90;;;;;;4942836;28;20110;-77
2023/04/30 11:35:08;;;;;;;7.80;2.50;;;16.30;99.90;;;;;;4942554;28;20062;-78
2023/04/30 11:37:40;;;;;;;4.57;2.15;;;16.30;99.90;;;;;;4942202;28;20050;-79
2023/04/30 11:40:10;;;;;;;8.73;2.42;;;16.10;99.90;;;;;;4944040;28;20079;-78
2023/04/30 11:42:38;;;;;;;6.43;2.30;;;16.20;99.90;;;;;;4946084;28;20408;-79
2023/04/30 11:45:04;;;;;;;5.25;2.10;;;16.30;99.90;;;;;;4957799;28;20054;-78
2023/04/30 11:47:50;;;;;;;7.03;2.17;;;16.40;99.90;;;;;;4947394;28;20058;-79
2023/04/30 11:50:26;;;;;;;10.43;2.30;;;16.40;99.90;;;;;;4944976;28;20043;-79
2023/04/30 11:52:53;;;;;;;4.25;2.00;;;16.50;99.90;;;;;;4926686;29;20061;-79
2023/04/30 11:55:21;;;;;;;4.55;1.90;;;16.50;99.90;;;;;;4942039;28;20787;-80
2023/04/30 11:57:49;;;;;;;5.80;2.10;;;16.50;99.90;;;;;;4960794;28;20130;-79
2023/04/30 12:00:17;;;;;;;3.50;1.67;;;16.70;99.90;;;;;;4941733;28;20688;-77
2023/04/30 12:02:46;;;;;;;5.80;1.90;;;16.70;99.90;;;;;;4960564;28;20150;-77
2023/04/30 12:05:16;;;;;;;4.75;1.60;;;16.60;99.90;;;;;;4945637;28;20581;-78
2023/04/30 12:08:05;;;;;;;3.05;1.80;;;16.50;99.90;;;;;;4944738;28;20027;-77
2023/04/30 12:10:31;;;;;;;3.97;1.65;;;16.30;99.90;;;;;;4952638;28;20103;-77
2023/04/30 12:12:57;;;;;;;2.58;1.27;;;16.20;99.90;;;;;;4940597;28;20059;-77
2023/04/30 12:15:27;;;;;;;3.50;1.20;;;16.30;99.90;;;;;;4939733;28;20522;-78
2023/04/30 12:17:58;;;;;;;5.70;1.40;;;16.40;99.90;;;;;;4942462;28;20067;-75
2023/04/30 12:20:27;;;;;;;3.97;1.48;;;16.50;99.90;;;;;;4941900;28;20055;-78
2023/04/30 12:22:53;;;;;;;2.85;1.30;;;16.40;99.90;;;;;;4942305;28;20040;-75
2023/04/30 12:25:21;;;;;;;3.90;1.50;;;16.50;99.90;;;;;;4945753;28;20043;-74
2023/04/30 12:27:52;;;;;;;2.05;1.10;;;16.50;99.90;;;;;;4930975;29;20063;-74
2023/04/30 12:30:23;;;;;;;3.92;1.30;;;16.70;99.90;;;;;;4945767;28;20051;-75
2023/04/30 12:32:51;;;;;;;4.13;1.42;;;16.80;99.90;;;;;;4946489;28;20049;-77
2023/04/30 12:35:19;;;;;;;3.78;1.70;;;16.80;99.90;;;;;;4941628;28;20034;-78
2023/04/30 12:37:51;;;;;;;4.75;1.30;;;16.80;99.90;;;;;;4944887;28;20817;-76
2023/04/30 12:40:25;;;;;;;3.70;1.40;;;16.80;99.90;;;;;;4947545;28;20119;-75
2023/04/30 12:42:58;;;;;;;3.30;1.35;;;16.90;99.90;;;;;;4958060;28;20098;-76
2023/04/30 12:45:43;;;;;;;4.38;1.50;;;16.90;99.90;;;;;;4957635;28;20050;-74
2023/04/30 12:48:08;;;;;;;5.07;1.83;;;16.80;99.90;;;;;;4947057;28;20479;-75
2023/04/30 12:50:34;;;;;;;4.28;1.70;;;16.80;99.90;;;;;;4949414;28;20110;-76